Airfield :
LOGIN :

Register | Disclaimer

   EN    FR    IT 

 










Legend :    VFR   Marginal VFR   IFR   Intensive IFR   Very Intensive IFR
Visi :
Ceiling :
>= 8 km
>= 3000ft
5 to 8 km
1000 to 3000 ft
1500m to 5 km
500 to 1000 ft
800 to 1500m
200 to 500 ft
< 800m
< 200 ft
Symbols :   Thunderstorms  Fog  Heavy snow  Heavy precipitations  Wind > 20 kt
SIGMETs :     Misc.  Thunderstorms  Icing  Turbulence  Mountain Waves  Volcanic Ashes







- Airport Elevation : 768 ft
- IATA code : MXP


LIMC - Milano Malpensa

CURRENT METAR :
  • 260850Z 01006KT 340V040 9999 BKN070 18/13 Q1016 NOSIG

EXPIRED METARs :
  • 260820Z 02005KT 330V050 9999 BKN070 17/14 Q1016 NOSIG
  • 260750Z 02005KT 9999 BKN070 16/13 Q1016 NOSIG
  • 260720Z 02006KT 9999 BKN070 15/13 Q1016 NOSIG
  • 260650Z 01006KT 9999 BKN060 15/13 Q1016 NOSIG
  • 260620Z 01004KT 9999 BKN060 15/13 Q1015 NOSIG

TAF TAF LIMC
Valid from the 26 at 06:00 until the 27 at 12:00 UTC


260500Z 2606/2712 VRB05KT 9999 SCT030 BKN060
TEMPO 2606/2610 RA
TEMPO 2707/2712 RA
No reported NOTAMs for that airfield.
2 SIGMETs reported for the Milano FIR (LIMM) :
 
Embedded thunderstorms
LIMM SIGMET 6 VALID 260830/261030 LIIP
LIMM MILANO FIR EMBD TS FCST WI N4441 E00651 - N4529 E01027 - N4344 E01146 - N4340 E00917 - N4413 E00845 - N4348 E00729 - N4441 E00651 TOP FL280 STNR WKN=
Severe turbulence
LIMM SIGMET 5 VALID 260830/261230 LIIP
LIMM MILANO FIR SEV TURB FCST W OF LINE N4701 E01047 - N4313 E00914 FL240/350 STNR WKN=



MET'MAP, your aeronautical weather chart ! - Copyright ORBIFLY December 2007 - Disclaimer

ORBIFLY MET'MAP TEAM :

Programming & Development : Alexandra Zaïnal
Concept & Development : Baudouin d'Aumeries
Co-Development & Prog : Marc-Olivier Méhu
Technical & hardware support : Manuel Goepfert

Contact : metmap@orbifly.com




SOURCES & CREDITS :

   NOAA